Lokaal Brand Risico
CBI


Neerslagradar Meer informatie rain snow radar


Onweersbuien Meer informatie Boltek Parkstad!


24/7 Weercamera Meer informatie Webcam







Het weer levert geen direct gevaar op in Parkstad (045)    Er zijn geen waarschuwingen afgegeven voor Parkstad (045)

METAR rapporten vliegvelden

   
EHBK - Beek Nederland
Gewijzigd: 20-11-2017 17:55
Nevel, Bewolking  
Nevel, Bewolking  
   Wind: ZW 31.5 km/h
Wind: ZW 31.5 km/h
Temperatuur: 8°C
Voelt als: 4°C
Dauwpunt: 7°C
Vochtigheid: 93%
Barometer: 1013 hPa
Satelliet beelden: Bewolking
Zicht: 4 km
Bewolking: Licht bewolkt 91 m,
Grotendeels bewolkt 152 m,
Bewolking 183 m
EHBK 201655Z AUTO 22017KT 3800 BR FEW003 BKN005 OVC006 08/07 Q1013 TEMPO 3500 DZ
EHBK - Maastricht Nederland
Gewijzigd: 20-11-2017 17:55
Nevel, Bewolking  
Nevel, Bewolking  
   Wind: ZW 31.5 km/h
Wind: ZW 31.5 km/h
Temperatuur: 8°C
Voelt als: 4°C
Dauwpunt: 7°C
Vochtigheid: 93%
Barometer: 1013 hPa
Satelliet beelden: Bewolking
Zicht: 4 km
Bewolking: Licht bewolkt 91 m,
Grotendeels bewolkt 152 m,
Bewolking 183 m
EHBK 201655Z AUTO 22017KT 3800 BR FEW003 BKN005 OVC006 08/07 Q1013 TEMPO 3500 DZ
EBLG - Liège België
Gewijzigd: 20-11-2017 17:50
Wat regen mogelijk, Grotendeels bewolkt  
Wat regen mogelijk, Grotendeels bewolkt  
   Wind: ZW 31.5 km/h
Wind: ZW 31.5 km/h
Temperatuur: 7°C
Voelt als: 3°C
Dauwpunt: 6°C
Vochtigheid: 93%
Barometer: 1014 hPa
Satelliet beelden: Grotendeels bewolkt
Zicht: 9 km
Bewolking: Licht bewolkt 152 m,
Grotendeels bewolkt 213 m
EBLG 201650Z 22017KT 180V240 9000 -RA FEW005 BKN007 07/06 Q1014 TEMPO 2500 BKN004
EDDK - Köln/Bonn Duitsland
Gewijzigd: 20-11-2017 17:50
Wat regen mogelijk, Nevel, Bewolking  
Wat regen mogelijk, Nevel, Bewolking  
   Wind: ZZO 16.7 km/h
Wind: ZZO 16.7 km/h
Temperatuur: 5°C
Voelt als: 2°C
Dauwpunt: 5°C
Vochtigheid: 100%
Barometer: 1013 hPa
Satelliet beelden: Bewolking
Zicht: 4 km
Bewolking: Licht bewolkt 152 m,
Bewolking 488 m
EDDK 201650Z 16009KT 4000 -RA BR FEW005 OVC016 05/05 Q1013 BECMG BKN013
EDDL - Düsseldorf Duitsland
Gewijzigd: 20-11-2017 17:50
Wat regen mogelijk, Nevel, Bewolking  
Wat regen mogelijk, Nevel, Bewolking  
   Wind: ZZW 20.4 km/h
Wind: ZZW 20.4 km/h
Temperatuur: 7°C
Voelt als: 3°C
Dauwpunt: 7°C
Vochtigheid: 100%
Barometer: 1012 hPa
Satelliet beelden: Bewolking
Zicht: 4 km
Bewolking: Bewolking 183 m
EDDL 201650Z 20011KT 3500 -RA BR OVC006 07/07 Q1012 NOSIG
EHEH - Eindhoven Nederland
Gewijzigd: 20-11-2017 17:55
Wat regen mogelijk, Bewolking  
Wat regen mogelijk, Bewolking  
   Wind: ZW 27.8 km/h
Wind: ZW 27.8 km/h
Temperatuur: 9°C
Voelt als: 6°C
Dauwpunt: 9°C
Vochtigheid: 100%
Barometer: 1011 hPa
Satelliet beelden: Bewolking
Zicht: 3 km
Bewolking: Grotendeels bewolkt 152 m,
Bewolking 183 m
EHEH 201655Z AUTO 23015KT 3100 R21/P3000U -RA BKN005 OVC006 09/09 Q1011 RERA REDZ YLO 20012KT 4000 BR -RADZ FEW004 SCT005 BKN008 TEMPO 2500 DZRA SCT004 BKN005
ELLX - Luxemburg Luxemburg
Gewijzigd: 20-11-2017 17:50
Wat regen mogelijk, Motregen, Nevel, Grotendeels bewolkt  
Wat regen mogelijk, Motregen, Nevel, Grotendeels bewolkt  
   Wind: ZW 20.4 km/h
Wind: ZW 20.4 km/h
Temperatuur: 4°C
Voelt als: 0°C
Dauwpunt: 4°C
Vochtigheid: 100%
Barometer: 1016 hPa
Satelliet beelden: Grotendeels bewolkt
Zicht: 3 km
Bewolking: Gedeeltelijk bewolkt 31 m,
Grotendeels bewolkt 122 m
ELLX 201650Z 22011KT 2500 -RADZ BR SCT001 BKN004 04/04 Q1016 TEMPO 0900 FG OVC002
EGLL - London England
Gewijzigd: 20-11-2017 17:50
Bewolking  
Bewolking  
   Wind: WZW 22.2 km/h
Wind: WZW 22.2 km/h
Temperatuur: 13°C
Dauwpunt: 11°C
Vochtigheid: 88%
Barometer: 1013 hPa
Satelliet beelden: Bewolking
Zicht: meer dan 10 km
Bewolking: Bewolking 427 m
EGLL 201650Z AUTO 24012KT 9999 OVC014 13/11 Q1013
EBAW - Antwerpen België
Gewijzigd: 20-11-2017 17:50
Lichte (mot)regen, Grotendeels bewolkt  
Lichte (mot)regen, Grotendeels bewolkt  
   Wind: ZW 16.7 km/h
Wind: ZW 16.7 km/h
Temperatuur: 10°C
Voelt als: 8°C
Dauwpunt: 9°C
Vochtigheid: 94%
Barometer: 1012 hPa
Satelliet beelden: Grotendeels bewolkt
Zicht: 5 km
Bewolking: Grotendeels bewolkt 91 m,
Grotendeels bewolkt 152 m
EBAW 201650Z 22009KT 5000 -DZ BKN003 BKN005 10/09 Q1012 TEMPO 24017G27KT 2500 RADZ BKN004
EBOS - Oostende België
Gewijzigd: 20-11-2017 17:50
Grotendeels bewolkt  
Grotendeels bewolkt  
   Wind: WZW 37 km/h
Wind: WZW 37 km/h
Temperatuur: 12°C
Dauwpunt: 10°C
Vochtigheid: 88%
Barometer: 1013 hPa
Satelliet beelden: Grotendeels bewolkt
Zicht: meer dan 10 km
Bewolking: Grotendeels bewolkt 244 m,
Grotendeels bewolkt 335 m
EBOS 201650Z 25020KT 9999 BKN008 BKN011 12/10 Q1013 RERA REDZ TEMPO 26023G33KT 2500 RADZ BKN005
LEAL - La Nucia Spanje
Gewijzigd: 20-11-2017 18:00
Helder  
Helder  
   Wind: Windstil
Wind: Windstil
Temperatuur: 16°C
Dauwpunt: 14°C
Vochtigheid: 88%
Barometer: 1022 hPa
Zicht: meer dan 10 km
Bewolking: Helder
LEAL 201700Z 00000KT CAVOK 16/14 Q1022 NOSIG
TNCA - Oranjestad Aruba
Gewijzigd: 20-11-2017 18:00
Gedeeltelijk bewolkt  
Gedeeltelijk bewolkt  
   Wind: Oosten 20.4 km/h
Wind: Oosten 20.4 km/h
Temperatuur: 30°C
Gevoelstemperatuur: 36°C
Dauwpunt: 25°C
Vochtigheid: 75%
Barometer: 1009 hPa
Satelliet beelden: Gedeeltelijk bewolkt
Zicht: meer dan 10 km
Bewolking: Gedeeltelijk bewolkt 610 m
TNCA 201700Z 10011KT 9999 SCT020 30/25 Q1009 A2981 NOSIG
TNCC - Willemstad Curacao
Gewijzigd: 20-11-2017 18:00
Gedeeltelijk bewolkt  
Gedeeltelijk bewolkt  
   Wind: Oosten 20.4 km/h
Wind: Oosten 20.4 km/h
Temperatuur: 30°C
Gevoelstemperatuur: 36°C
Dauwpunt: 25°C
Vochtigheid: 75%
Barometer: 1010 hPa
Satelliet beelden: Gedeeltelijk bewolkt
Zicht: meer dan 10 km
Bewolking: Gedeeltelijk bewolkt 762 m
TNCC 201700Z 09011KT 9999 SCT025 30/25 Q1010 NOSIG
MTPP - Port au Prince Haitië
Gewijzigd: 20-11-2017 18:00
Gedeeltelijk bewolkt  
Gedeeltelijk bewolkt  
   Wind: Oosten 13 km/h
Wind: Oosten 13 km/h
Temperatuur: 32°C
Gevoelstemperatuur: 36°C
Dauwpunt: 22°C
Vochtigheid: 55%
Barometer: 1010 hPa
Satelliet beelden: Gedeeltelijk bewolkt
Zicht: meer dan 10 km
Bewolking: Gedeeltelijk bewolkt 853 m
MTPP 201700Z 08007KT 9999 SCT028 32/22 Q1010 A2983
ENVA - Trondheim Noorwegen
Gewijzigd: 20-11-2017 17:50
Helder  
Helder  
   Wind: OZO 14.8 km/h
Wind: OZO 14.8 km/h
Temperatuur: -10°C
Voelt als: -17°C
Dauwpunt: -12°C
Vochtigheid: 85%
Barometer: 1012 hPa
Zicht: meer dan 10 km
Bewolking: Helder
ENVA 201650Z 11008KT CAVOK M10/M12 Q1012 NOSIG RMK WIND 670FT 15006KT
ENBO - Bodø Noorwegen
Gewijzigd: 20-11-2017 17:50
Helder  
Helder  
   Wind: Oosten 18.5 km/h
Wind: Oosten 18.5 km/h
Temperatuur: -5°C
Voelt als: -11°C
Dauwpunt: -8°C
Vochtigheid: 80%
Barometer: 1012 hPa
Zicht: meer dan 10 km
Bewolking: Helder
ENBO 201650Z 08010KT CAVOK M05/M08 Q1012 NOSIG
ETNG - Geilenkirchen Duitsland
Gewijzigd: 20-11-2017 17:50
Grotendeels bewolkt  
Grotendeels bewolkt  
   Wind: ZW 27.8 km/h<br />Gust to 27.8 km/h
Wind: ZW 27.8 km/h
Gust to 27.8 km/h
Temperatuur: 8°C
Voelt als: 4°C
Dauwpunt: 7°C
Vochtigheid: 93%
Barometer: 1012 hPa
Satelliet beelden: Grotendeels bewolkt
Zicht: meer dan 10 km
Bewolking: Licht bewolkt 152 m,
Grotendeels bewolkt 274 m
ETNG 201650Z 23015G28KT 9999 FEW005 BKN009 08/07 Q1012
 

Script ontwikkeld door  Saratoga-weather.org Aangepast voor de template door  Weerstation Leuven

U vindt ons ook hier:

Het Weer Aktueel

UK Metoffice

European Weather Network

WeatherCloud

Weather Underground

Benelux Weer Netwerk

AWEKAS

WeatherlinkIP

Citizen Weather Observer Program (CWOP)

HAMweather, WeatherForYou, PWS Weather

Apparatuur in gebruik:

Hardwareleverancier
Weerhuisje

Weerstation
Vantage Pro2 Plus +UV

Weercomputer
AwekasBox (ALIX.3D2 PC)

Weerprogramma
Smartbedded

Weersatelliet
WRX137 & KX137

Bliksemdetectie
Boltek StormTracker PCI

Webleverancier
STRATO VPS Linux V80

Weerhuisje

Vantage Pro2 Plus +UV

AwekasBox (ALIX.3D2 PC)

Smartbedded

WRX137 & KX137

Boltek StormTracker PCI

STRATO VPS Linux V80